sensor_id;sensor_type;location;lat;lon;timestamp;P1;durP1;ratioP1;P2;durP2;ratioP2
76292;SDS011;67256;51.154;4.164;2023-07-31T00:01:21;18.40;;;4.90;;
76292;SDS011;67256;51.154;4.164;2023-07-31T00:03:47;14.23;;;5.85;;
76292;SDS011;67256;51.154;4.164;2023-07-31T00:06:12;13.65;;;5.88;;
76292;SDS011;67256;51.154;4.164;2023-07-31T00:08:38;16.58;;;4.68;;
76292;SDS011;67256;51.154;4.164;2023-07-31T00:11:04;16.25;;;5.85;;
76292;SDS011;67256;51.154;4.164;2023-07-31T00:13:29;13.38;;;5.93;;
76292;SDS011;67256;51.154;4.164;2023-07-31T00:15:55;21.10;;;6.10;;
76292;SDS011;67256;51.154;4.164;2023-07-31T00:18:21;16.17;;;5.65;;
76292;SDS011;67256;51.154;4.164;2023-07-31T00:20:46;12.68;;;6.00;;
76292;SDS011;67256;51.154;4.164;2023-07-31T00:23:12;18.13;;;5.80;;
76292;SDS011;67256;51.154;4.164;2023-07-31T00:25:38;16.85;;;5.57;;
76292;SDS011;67256;51.154;4.164;2023-07-31T00:28:04;15.02;;;5.97;;
76292;SDS011;67256;51.154;4.164;2023-07-31T00:30:30;18.85;;;5.78;;
76292;SDS011;67256;51.154;4.164;2023-07-31T00:32:55;13.73;;;5.35;;
76292;SDS011;67256;51.154;4.164;2023-07-31T00:35:21;16.30;;;5.70;;
76292;SDS011;67256;51.154;4.164;2023-07-31T00:37:47;24.15;;;6.78;;
76292;SDS011;67256;51.154;4.164;2023-07-31T00:40:12;18.23;;;6.82;;
76292;SDS011;67256;51.154;4.164;2023-07-31T00:42:39;18.08;;;5.82;;
76292;SDS011;67256;51.154;4.164;2023-07-31T00:45:05;17.40;;;6.07;;
76292;SDS011;67256;51.154;4.164;2023-07-31T00:47:31;20.38;;;5.88;;
76292;SDS011;67256;51.154;4.164;2023-07-31T00:49:57;21.77;;;6.13;;
76292;SDS011;67256;51.154;4.164;2023-07-31T00:52:22;19.35;;;6.68;;
76292;SDS011;67256;51.154;4.164;2023-07-31T00:54:49;15.13;;;5.82;;
76292;SDS011;67256;51.154;4.164;2023-07-31T00:57:15;16.60;;;5.75;;
76292;SDS011;67256;51.154;4.164;2023-07-31T00:59:40;18.17;;;6.15;;
76292;SDS011;67256;51.154;4.164;2023-07-31T01:02:06;19.20;;;5.60;;
76292;SDS011;67256;51.154;4.164;2023-07-31T01:04:32;15.98;;;5.72;;
76292;SDS011;67256;51.154;4.164;2023-07-31T01:12:29;16.83;;;6.75;;
76292;SDS011;67256;51.154;4.164;2023-07-31T01:17:35;15.27;;;5.63;;
76292;SDS011;67256;51.154;4.164;2023-07-31T01:20:05;16.05;;;5.70;;
76292;SDS011;67256;51.154;4.164;2023-07-31T01:28:34;16.05;;;6.03;;
76292;SDS011;67256;51.154;4.164;2023-07-31T01:31:07;18.05;;;5.88;;
76292;SDS011;67256;51.154;4.164;2023-07-31T01:33:36;19.42;;;6.22;;
76292;SDS011;67256;51.154;4.164;2023-07-31T01:36:03;12.82;;;5.78;;
76292;SDS011;67256;51.154;4.164;2023-07-31T01:38:29;15.85;;;5.88;;
76292;SDS011;67256;51.154;4.164;2023-07-31T01:40:55;17.38;;;6.13;;
76292;SDS011;67256;51.154;4.164;2023-07-31T01:43:20;16.65;;;5.18;;
76292;SDS011;67256;51.154;4.164;2023-07-31T01:45:46;20.88;;;5.45;;
76292;SDS011;67256;51.154;4.164;2023-07-31T01:48:12;14.38;;;4.90;;
76292;SDS011;67256;51.154;4.164;2023-07-31T01:50:37;17.00;;;5.55;;
76292;SDS011;67256;51.154;4.164;2023-07-31T01:53:03;18.40;;;5.45;;
76292;SDS011;67256;51.154;4.164;2023-07-31T01:55:29;17.38;;;5.10;;
76292;SDS011;67256;51.154;4.164;2023-07-31T01:57:55;15.05;;;5.85;;
76292;SDS011;67256;51.154;4.164;2023-07-31T02:00:20;14.65;;;5.47;;
76292;SDS011;67256;51.154;4.164;2023-07-31T02:02:46;16.15;;;5.43;;
76292;SDS011;67256;51.154;4.164;2023-07-31T02:05:11;16.42;;;5.40;;
76292;SDS011;67256;51.154;4.164;2023-07-31T02:07:37;21.65;;;6.13;;
76292;SDS011;67256;51.154;4.164;2023-07-31T02:10:03;15.63;;;5.85;;
76292;SDS011;67256;51.154;4.164;2023-07-31T02:12:29;17.05;;;5.30;;
76292;SDS011;67256;51.154;4.164;2023-07-31T02:14:57;17.00;;;6.03;;
76292;SDS011;67256;51.154;4.164;2023-07-31T02:17:22;15.15;;;4.68;;
76292;SDS011;67256;51.154;4.164;2023-07-31T02:19:48;16.95;;;5.28;;
76292;SDS011;67256;51.154;4.164;2023-07-31T02:22:13;17.05;;;6.03;;
76292;SDS011;67256;51.154;4.164;2023-07-31T02:24:39;14.73;;;5.00;;
76292;SDS011;67256;51.154;4.164;2023-07-31T02:27:05;14.50;;;5.47;;
76292;SDS011;67256;51.154;4.164;2023-07-31T02:29:31;21.20;;;5.88;;
76292;SDS011;67256;51.154;4.164;2023-07-31T02:31:57;15.35;;;5.35;;
76292;SDS011;67256;51.154;4.164;2023-07-31T02:34:22;14.85;;;5.30;;
76292;SDS011;67256;51.154;4.164;2023-07-31T02:36:48;12.93;;;4.80;;
76292;SDS011;67256;51.154;4.164;2023-07-31T02:39:14;15.23;;;6.05;;
76292;SDS011;67256;51.154;4.164;2023-07-31T02:41:39;12.48;;;5.50;;
76292;SDS011;67256;51.154;4.164;2023-07-31T02:44:05;16.75;;;5.53;;
76292;SDS011;67256;51.154;4.164;2023-07-31T02:46:31;18.92;;;5.28;;
76292;SDS011;67256;51.154;4.164;2023-07-31T02:48:56;22.58;;;5.82;;
76292;SDS011;67256;51.154;4.164;2023-07-31T02:51:22;14.85;;;5.38;;
76292;SDS011;67256;51.154;4.164;2023-07-31T02:53:48;14.05;;;5.32;;
76292;SDS011;67256;51.154;4.164;2023-07-31T02:56:14;16.90;;;5.25;;
76292;SDS011;67256;51.154;4.164;2023-07-31T02:58:40;13.93;;;4.75;;
76292;SDS011;67256;51.154;4.164;2023-07-31T03:01:05;16.77;;;4.80;;
76292;SDS011;67256;51.154;4.164;2023-07-31T03:03:31;17.63;;;5.28;;
76292;SDS011;67256;51.154;4.164;2023-07-31T03:05:57;15.43;;;5.32;;
76292;SDS011;67256;51.154;4.164;2023-07-31T03:08:23;16.77;;;5.13;;
76292;SDS011;67256;51.154;4.164;2023-07-31T03:10:49;12.45;;;4.32;;
76292;SDS011;67256;51.154;4.164;2023-07-31T03:13:14;17.73;;;5.60;;
76292;SDS011;67256;51.154;4.164;2023-07-31T03:15:43;24.38;;;6.50;;
76292;SDS011;67256;51.154;4.164;2023-07-31T03:18:08;15.15;;;5.07;;
76292;SDS011;67256;51.154;4.164;2023-07-31T03:20:34;16.02;;;4.57;;
76292;SDS011;67256;51.154;4.164;2023-07-31T03:23:00;17.50;;;5.75;;
76292;SDS011;67256;51.154;4.164;2023-07-31T03:25:25;18.05;;;5.00;;
76292;SDS011;67256;51.154;4.164;2023-07-31T03:27:51;13.02;;;5.32;;
76292;SDS011;67256;51.154;4.164;2023-07-31T03:30:17;19.25;;;5.05;;
76292;SDS011;67256;51.154;4.164;2023-07-31T03:32:42;16.30;;;5.97;;
76292;SDS011;67256;51.154;4.164;2023-07-31T03:35:08;16.88;;;4.78;;
76292;SDS011;67256;51.154;4.164;2023-07-31T03:37:34;12.80;;;5.28;;
76292;SDS011;67256;51.154;4.164;2023-07-31T03:40:00;10.23;;;4.38;;
76292;SDS011;67256;51.154;4.164;2023-07-31T03:42:25;19.35;;;5.93;;
76292;SDS011;67256;51.154;4.164;2023-07-31T03:44:51;18.10;;;5.38;;
76292;SDS011;67256;51.154;4.164;2023-07-31T03:47:17;16.70;;;4.95;;
76292;SDS011;67256;51.154;4.164;2023-07-31T03:49:43;15.77;;;5.13;;
76292;SDS011;67256;51.154;4.164;2023-07-31T03:52:08;14.55;;;5.65;;
76292;SDS011;67256;51.154;4.164;2023-07-31T03:54:34;13.55;;;5.07;;
76292;SDS011;67256;51.154;4.164;2023-07-31T03:57:00;16.20;;;5.30;;
76292;SDS011;67256;51.154;4.164;2023-07-31T03:59:25;11.48;;;4.80;;
76292;SDS011;67256;51.154;4.164;2023-07-31T04:01:51;15.35;;;6.25;;
76292;SDS011;67256;51.154;4.164;2023-07-31T04:04:17;12.10;;;5.15;;
76292;SDS011;67256;51.154;4.164;2023-07-31T04:06:42;11.23;;;5.38;;
76292;SDS011;67256;51.154;4.164;2023-07-31T04:09:08;13.52;;;5.47;;
76292;SDS011;67256;51.154;4.164;2023-07-31T04:11:34;16.00;;;5.45;;
76292;SDS011;67256;51.154;4.164;2023-07-31T04:13:59;14.38;;;5.50;;
76292;SDS011;67256;51.154;4.164;2023-07-31T04:16:25;13.75;;;5.53;;
76292;SDS011;67256;51.154;4.164;2023-07-31T04:18:50;13.88;;;6.10;;
76292;SDS011;67256;51.154;4.164;2023-07-31T04:21:16;14.52;;;5.65;;
76292;SDS011;67256;51.154;4.164;2023-07-31T04:23:42;13.23;;;5.25;;
76292;SDS011;67256;51.154;4.164;2023-07-31T04:26:09;11.02;;;6.70;;
76292;SDS011;67256;51.154;4.164;2023-07-31T04:28:34;12.40;;;5.05;;
76292;SDS011;67256;51.154;4.164;2023-07-31T04:31:00;13.90;;;5.03;;
76292;SDS011;67256;51.154;4.164;2023-07-31T04:33:26;9.55;;;5.07;;
76292;SDS011;67256;51.154;4.164;2023-07-31T04:35:52;14.05;;;5.53;;
76292;SDS011;67256;51.154;4.164;2023-07-31T04:38:19;15.07;;;5.55;;
76292;SDS011;67256;51.154;4.164;2023-07-31T04:40:45;13.18;;;5.13;;
76292;SDS011;67256;51.154;4.164;2023-07-31T04:43:11;11.13;;;5.00;;
76292;SDS011;67256;51.154;4.164;2023-07-31T04:45:37;13.95;;;5.47;;
76292;SDS011;67256;51.154;4.164;2023-07-31T04:48:02;12.88;;;4.47;;
76292;SDS011;67256;51.154;4.164;2023-07-31T04:50:28;11.98;;;5.15;;
76292;SDS011;67256;51.154;4.164;2023-07-31T04:52:55;10.48;;;4.88;;
76292;SDS011;67256;51.154;4.164;2023-07-31T04:55:21;11.63;;;4.55;;
76292;SDS011;67256;51.154;4.164;2023-07-31T04:57:47;10.95;;;4.55;;
76292;SDS011;67256;51.154;4.164;2023-07-31T05:00:12;9.40;;;4.03;;
76292;SDS011;67256;51.154;4.164;2023-07-31T05:02:38;9.38;;;3.50;;
76292;SDS011;67256;51.154;4.164;2023-07-31T05:05:04;8.80;;;3.97;;
76292;SDS011;67256;51.154;4.164;2023-07-31T05:07:30;7.93;;;4.07;;
76292;SDS011;67256;51.154;4.164;2023-07-31T05:09:56;9.68;;;3.75;;
76292;SDS011;67256;51.154;4.164;2023-07-31T05:12:21;10.93;;;3.90;;
76292;SDS011;67256;51.154;4.164;2023-07-31T05:14:47;10.55;;;3.97;;
76292;SDS011;67256;51.154;4.164;2023-07-31T05:17:13;9.70;;;3.53;;
76292;SDS011;67256;51.154;4.164;2023-07-31T05:19:38;5.68;;;3.38;;
76292;SDS011;67256;51.154;4.164;2023-07-31T05:22:05;11.30;;;3.65;;
76292;SDS011;67256;51.154;4.164;2023-07-31T05:24:31;6.65;;;3.90;;
76292;SDS011;67256;51.154;4.164;2023-07-31T05:26:56;8.30;;;4.45;;
76292;SDS011;67256;51.154;4.164;2023-07-31T05:29:22;6.90;;;3.83;;
76292;SDS011;67256;51.154;4.164;2023-07-31T05:31:47;8.70;;;4.38;;
76292;SDS011;67256;51.154;4.164;2023-07-31T05:34:13;8.57;;;4.43;;
76292;SDS011;67256;51.154;4.164;2023-07-31T05:36:39;11.27;;;4.38;;
76292;SDS011;67256;51.154;4.164;2023-07-31T05:39:04;8.63;;;3.92;;
76292;SDS011;67256;51.154;4.164;2023-07-31T05:41:33;7.80;;;3.63;;
76292;SDS011;67256;51.154;4.164;2023-07-31T05:44:00;7.28;;;3.90;;
76292;SDS011;67256;51.154;4.164;2023-07-31T05:46:26;9.15;;;3.85;;
76292;SDS011;67256;51.154;4.164;2023-07-31T05:48:52;8.30;;;4.05;;
76292;SDS011;67256;51.154;4.164;2023-07-31T05:51:17;8.30;;;3.70;;
76292;SDS011;67256;51.154;4.164;2023-07-31T05:53:43;8.88;;;4.25;;
76292;SDS011;67256;51.154;4.164;2023-07-31T05:56:09;7.00;;;4.40;;
76292;SDS011;67256;51.154;4.164;2023-07-31T05:58:34;12.43;;;4.30;;
76292;SDS011;67256;51.154;4.164;2023-07-31T06:01:00;8.88;;;4.50;;
76292;SDS011;67256;51.154;4.164;2023-07-31T06:03:26;11.30;;;4.65;;
76292;SDS011;67256;51.154;4.164;2023-07-31T06:05:52;8.45;;;4.80;;
76292;SDS011;67256;51.154;4.164;2023-07-31T06:08:17;10.40;;;4.85;;
76292;SDS011;67256;51.154;4.164;2023-07-31T06:10:43;13.02;;;5.57;;
76292;SDS011;67256;51.154;4.164;2023-07-31T06:13:09;9.63;;;4.90;;
76292;SDS011;67256;51.154;4.164;2023-07-31T06:15:34;13.93;;;4.95;;
76292;SDS011;67256;51.154;4.164;2023-07-31T06:18:00;11.05;;;4.95;;
76292;SDS011;67256;51.154;4.164;2023-07-31T06:20:27;10.75;;;4.93;;
76292;SDS011;67256;51.154;4.164;2023-07-31T06:22:53;9.70;;;5.07;;
76292;SDS011;67256;51.154;4.164;2023-07-31T06:25:19;11.35;;;4.53;;
76292;SDS011;67256;51.154;4.164;2023-07-31T06:27:45;10.93;;;4.93;;
76292;SDS011;67256;51.154;4.164;2023-07-31T06:30:11;8.57;;;4.75;;
76292;SDS011;67256;51.154;4.164;2023-07-31T06:32:37;8.38;;;4.78;;
76292;SDS011;67256;51.154;4.164;2023-07-31T06:35:03;10.27;;;4.90;;
76292;SDS011;67256;51.154;4.164;2023-07-31T06:37:29;12.27;;;5.72;;
76292;SDS011;67256;51.154;4.164;2023-07-31T06:39:54;11.45;;;5.32;;
76292;SDS011;67256;51.154;4.164;2023-07-31T06:42:20;12.07;;;4.25;;
76292;SDS011;67256;51.154;4.164;2023-07-31T06:44:46;15.60;;;4.53;;
76292;SDS011;67256;51.154;4.164;2023-07-31T06:47:12;10.00;;;4.35;;
76292;SDS011;67256;51.154;4.164;2023-07-31T06:49:38;8.02;;;4.53;;
76292;SDS011;67256;51.154;4.164;2023-07-31T06:52:06;8.32;;;4.53;;
76292;SDS011;67256;51.154;4.164;2023-07-31T06:54:32;8.38;;;4.15;;
76292;SDS011;67256;51.154;4.164;2023-07-31T06:56:58;8.40;;;4.22;;
76292;SDS011;67256;51.154;4.164;2023-07-31T06:59:23;9.57;;;4.38;;
76292;SDS011;67256;51.154;4.164;2023-07-31T07:01:49;8.68;;;4.20;;
76292;SDS011;67256;51.154;4.164;2023-07-31T07:04:15;8.15;;;3.90;;
76292;SDS011;67256;51.154;4.164;2023-07-31T07:06:41;7.85;;;4.03;;
76292;SDS011;67256;51.154;4.164;2023-07-31T07:09:07;13.45;;;4.90;;
76292;SDS011;67256;51.154;4.164;2023-07-31T07:11:33;16.98;;;4.95;;
76292;SDS011;67256;51.154;4.164;2023-07-31T07:13:59;11.15;;;4.35;;
76292;SDS011;67256;51.154;4.164;2023-07-31T07:16:25;10.32;;;4.20;;
76292;SDS011;67256;51.154;4.164;2023-07-31T07:18:53;9.55;;;4.75;;
76292;SDS011;67256;51.154;4.164;2023-07-31T07:21:19;8.73;;;4.65;;
76292;SDS011;67256;51.154;4.164;2023-07-31T07:23:45;12.45;;;3.70;;
76292;SDS011;67256;51.154;4.164;2023-07-31T07:26:10;13.38;;;4.47;;
76292;SDS011;67256;51.154;4.164;2023-07-31T07:28:36;12.15;;;5.13;;
76292;SDS011;67256;51.154;4.164;2023-07-31T07:31:02;11.45;;;3.97;;
76292;SDS011;67256;51.154;4.164;2023-07-31T07:33:28;7.03;;;3.58;;
76292;SDS011;67256;51.154;4.164;2023-07-31T07:35:54;12.52;;;4.22;;
76292;SDS011;67256;51.154;4.164;2023-07-31T07:38:20;16.63;;;4.75;;
76292;SDS011;67256;51.154;4.164;2023-07-31T07:40:45;8.20;;;4.10;;
76292;SDS011;67256;51.154;4.164;2023-07-31T07:43:15;12.27;;;3.55;;
76292;SDS011;67256;51.154;4.164;2023-07-31T07:45:41;10.90;;;4.15;;
76292;SDS011;67256;51.154;4.164;2023-07-31T07:48:07;11.48;;;3.75;;
76292;SDS011;67256;51.154;4.164;2023-07-31T07:50:32;7.95;;;3.80;;
76292;SDS011;67256;51.154;4.164;2023-07-31T07:52:58;8.77;;;4.00;;
76292;SDS011;67256;51.154;4.164;2023-07-31T07:55:24;15.25;;;3.83;;
76292;SDS011;67256;51.154;4.164;2023-07-31T07:57:49;8.60;;;3.28;;
76292;SDS011;67256;51.154;4.164;2023-07-31T08:00:15;8.25;;;3.70;;
76292;SDS011;67256;51.154;4.164;2023-07-31T08:02:42;8.68;;;3.13;;
76292;SDS011;67256;51.154;4.164;2023-07-31T08:05:08;9.80;;;3.47;;
76292;SDS011;67256;51.154;4.164;2023-07-31T08:07:34;6.93;;;3.55;;
76292;SDS011;67256;51.154;4.164;2023-07-31T08:10:00;7.53;;;3.63;;
76292;SDS011;67256;51.154;4.164;2023-07-31T08:12:25;7.32;;;3.00;;
76292;SDS011;67256;51.154;4.164;2023-07-31T08:14:51;8.65;;;3.58;;
76292;SDS011;67256;51.154;4.164;2023-07-31T08:17:17;9.93;;;3.50;;
76292;SDS011;67256;51.154;4.164;2023-07-31T08:19:43;6.63;;;3.38;;
76292;SDS011;67256;51.154;4.164;2023-07-31T08:22:09;6.22;;;2.83;;
76292;SDS011;67256;51.154;4.164;2023-07-31T08:24:34;7.45;;;2.88;;
76292;SDS011;67256;51.154;4.164;2023-07-31T08:27:01;9.05;;;3.03;;
76292;SDS011;67256;51.154;4.164;2023-07-31T08:29:28;7.95;;;3.00;;
76292;SDS011;67256;51.154;4.164;2023-07-31T08:31:53;7.32;;;3.47;;
76292;SDS011;67256;51.154;4.164;2023-07-31T08:34:19;6.68;;;3.15;;
76292;SDS011;67256;51.154;4.164;2023-07-31T08:36:45;7.97;;;2.90;;
76292;SDS011;67256;51.154;4.164;2023-07-31T08:39:10;9.15;;;3.38;;
76292;SDS011;67256;51.154;4.164;2023-07-31T08:41:39;7.03;;;2.47;;
76292;SDS011;67256;51.154;4.164;2023-07-31T08:44:05;9.23;;;3.10;;
76292;SDS011;67256;51.154;4.164;2023-07-31T08:46:35;9.50;;;3.22;;
76292;SDS011;67256;51.154;4.164;2023-07-31T08:49:02;8.35;;;2.95;;
76292;SDS011;67256;51.154;4.164;2023-07-31T08:51:31;7.85;;;2.80;;
76292;SDS011;67256;51.154;4.164;2023-07-31T08:53:59;7.28;;;3.50;;
76292;SDS011;67256;51.154;4.164;2023-07-31T08:56:25;12.52;;;3.15;;
76292;SDS011;67256;51.154;4.164;2023-07-31T08:58:52;8.50;;;2.72;;
76292;SDS011;67256;51.154;4.164;2023-07-31T09:01:19;10.82;;;2.65;;
76292;SDS011;67256;51.154;4.164;2023-07-31T09:03:45;7.85;;;2.80;;
76292;SDS011;67256;51.154;4.164;2023-07-31T09:06:12;7.78;;;2.78;;
76292;SDS011;67256;51.154;4.164;2023-07-31T09:08:39;4.30;;;1.85;;
76292;SDS011;67256;51.154;4.164;2023-07-31T09:11:08;4.35;;;2.30;;
76292;SDS011;67256;51.154;4.164;2023-07-31T09:13:33;5.40;;;2.17;;
76292;SDS011;67256;51.154;4.164;2023-07-31T09:15:59;6.07;;;2.33;;
76292;SDS011;67256;51.154;4.164;2023-07-31T09:18:25;6.78;;;2.35;;
76292;SDS011;67256;51.154;4.164;2023-07-31T09:21:02;6.40;;;2.63;;
76292;SDS011;67256;51.154;4.164;2023-07-31T09:23:39;8.80;;;2.10;;
76292;SDS011;67256;51.154;4.164;2023-07-31T09:26:09;11.52;;;2.83;;
76292;SDS011;67256;51.154;4.164;2023-07-31T09:28:36;5.97;;;2.50;;
76292;SDS011;67256;51.154;4.164;2023-07-31T09:31:02;5.63;;;2.05;;
76292;SDS011;67256;51.154;4.164;2023-07-31T09:33:28;4.75;;;2.35;;
76292;SDS011;67256;51.154;4.164;2023-07-31T09:35:54;3.70;;;1.88;;
76292;SDS011;67256;51.154;4.164;2023-07-31T09:38:23;5.13;;;2.85;;
76292;SDS011;67256;51.154;4.164;2023-07-31T09:40:49;7.03;;;2.42;;
76292;SDS011;67256;51.154;4.164;2023-07-31T09:43:21;4.82;;;2.17;;
76292;SDS011;67256;51.154;4.164;2023-07-31T09:45:47;3.67;;;2.10;;
76292;SDS011;67256;51.154;4.164;2023-07-31T09:48:18;5.68;;;2.22;;
76292;SDS011;67256;51.154;4.164;2023-07-31T09:50:45;4.72;;;2.35;;
76292;SDS011;67256;51.154;4.164;2023-07-31T09:53:12;5.82;;;2.60;;
76292;SDS011;67256;51.154;4.164;2023-07-31T09:55:39;5.43;;;2.70;;
76292;SDS011;67256;51.154;4.164;2023-07-31T09:58:07;4.97;;;2.33;;
76292;SDS011;67256;51.154;4.164;2023-07-31T10:00:34;6.15;;;3.00;;
76292;SDS011;67256;51.154;4.164;2023-07-31T10:03:01;8.93;;;2.90;;
76292;SDS011;67256;51.154;4.164;2023-07-31T10:05:36;7.15;;;2.80;;
76292;SDS011;67256;51.154;4.164;2023-07-31T10:08:08;7.10;;;3.10;;
76292;SDS011;67256;51.154;4.164;2023-07-31T10:10:38;5.47;;;2.80;;
76292;SDS011;67256;51.154;4.164;2023-07-31T10:13:07;5.72;;;2.85;;
76292;SDS011;67256;51.154;4.164;2023-07-31T10:15:33;6.45;;;3.22;;
76292;SDS011;67256;51.154;4.164;2023-07-31T10:18:00;7.20;;;3.30;;
76292;SDS011;67256;51.154;4.164;2023-07-31T10:20:27;7.00;;;2.95;;
76292;SDS011;67256;51.154;4.164;2023-07-31T10:22:54;7.72;;;4.05;;
76292;SDS011;67256;51.154;4.164;2023-07-31T10:25:22;5.20;;;3.05;;
76292;SDS011;67256;51.154;4.164;2023-07-31T10:27:48;5.55;;;3.45;;
76292;SDS011;67256;51.154;4.164;2023-07-31T10:30:16;9.18;;;3.38;;
76292;SDS011;67256;51.154;4.164;2023-07-31T10:32:43;6.78;;;3.58;;
76292;SDS011;67256;51.154;4.164;2023-07-31T10:35:10;11.95;;;3.55;;
76292;SDS011;67256;51.154;4.164;2023-07-31T10:37:37;9.18;;;3.67;;
76292;SDS011;67256;51.154;4.164;2023-07-31T10:42:31;6.28;;;3.45;;
76292;SDS011;67256;51.154;4.164;2023-07-31T10:45:04;9.75;;;3.90;;
76292;SDS011;67256;51.154;4.164;2023-07-31T10:50:16;7.00;;;3.28;;
76292;SDS011;67256;51.154;4.164;2023-07-31T10:52:51;9.70;;;3.88;;
76292;SDS011;67256;51.154;4.164;2023-07-31T11:00:33;8.60;;;3.80;;
76292;SDS011;67256;51.154;4.164;2023-07-31T11:03:08;7.72;;;3.65;;
76292;SDS011;67256;51.154;4.164;2023-07-31T11:10:46;8.13;;;4.53;;
76292;SDS011;67256;51.154;4.164;2023-07-31T11:13:12;10.95;;;5.20;;
76292;SDS011;67256;51.154;4.164;2023-07-31T11:15:38;10.05;;;5.15;;
76292;SDS011;67256;51.154;4.164;2023-07-31T11:18:04;10.02;;;4.78;;
76292;SDS011;67256;51.154;4.164;2023-07-31T11:20:36;10.13;;;5.60;;
76292;SDS011;67256;51.154;4.164;2023-07-31T11:23:03;10.88;;;4.93;;
76292;SDS011;67256;51.154;4.164;2023-07-31T11:25:34;12.50;;;5.95;;
76292;SDS011;67256;51.154;4.164;2023-07-31T11:28:06;9.65;;;5.05;;
76292;SDS011;67256;51.154;4.164;2023-07-31T11:30:34;9.52;;;4.63;;
76292;SDS011;67256;51.154;4.164;2023-07-31T11:33:01;11.82;;;5.13;;
76292;SDS011;67256;51.154;4.164;2023-07-31T11:35:29;7.50;;;4.90;;
76292;SDS011;67256;51.154;4.164;2023-07-31T11:37:58;10.75;;;5.22;;
76292;SDS011;67256;51.154;4.164;2023-07-31T11:40:24;9.55;;;4.95;;
76292;SDS011;67256;51.154;4.164;2023-07-31T11:42:59;9.68;;;5.38;;
76292;SDS011;67256;51.154;4.164;2023-07-31T11:45:30;9.82;;;5.85;;
76292;SDS011;67256;51.154;4.164;2023-07-31T11:47:56;13.93;;;4.90;;
76292;SDS011;67256;51.154;4.164;2023-07-31T11:50:22;10.63;;;5.38;;
76292;SDS011;67256;51.154;4.164;2023-07-31T11:52:53;11.02;;;5.18;;
76292;SDS011;67256;51.154;4.164;2023-07-31T11:55:24;11.05;;;4.90;;
76292;SDS011;67256;51.154;4.164;2023-07-31T11:57:51;9.77;;;4.85;;
76292;SDS011;67256;51.154;4.164;2023-07-31T12:00:19;9.63;;;5.07;;
76292;SDS011;67256;51.154;4.164;2023-07-31T12:02:45;11.77;;;4.75;;
76292;SDS011;67256;51.154;4.164;2023-07-31T12:05:12;9.95;;;5.32;;
76292;SDS011;67256;51.154;4.164;2023-07-31T12:07:44;10.32;;;5.00;;
76292;SDS011;67256;51.154;4.164;2023-07-31T12:10:30;12.93;;;5.43;;
76292;SDS011;67256;51.154;4.164;2023-07-31T12:15:42;13.02;;;5.38;;
76292;SDS011;67256;51.154;4.164;2023-07-31T12:20:42;9.82;;;4.82;;
76292;SDS011;67256;51.154;4.164;2023-07-31T12:25:45;7.88;;;4.88;;
76292;SDS011;67256;51.154;4.164;2023-07-31T12:28:10;13.02;;;5.40;;
76292;SDS011;67256;51.154;4.164;2023-07-31T12:30:37;11.45;;;5.30;;
76292;SDS011;67256;51.154;4.164;2023-07-31T12:33:05;11.85;;;4.25;;
76292;SDS011;67256;51.154;4.164;2023-07-31T12:35:40;9.35;;;4.20;;
76292;SDS011;67256;51.154;4.164;2023-07-31T12:38:11;12.30;;;4.72;;
76292;SDS011;67256;51.154;4.164;2023-07-31T12:40:38;11.32;;;5.22;;
76292;SDS011;67256;51.154;4.164;2023-07-31T12:43:04;12.02;;;4.65;;
76292;SDS011;67256;51.154;4.164;2023-07-31T12:45:30;13.32;;;4.63;;
76292;SDS011;67256;51.154;4.164;2023-07-31T12:47:57;7.78;;;4.53;;
76292;SDS011;67256;51.154;4.164;2023-07-31T12:50:23;9.95;;;4.65;;
76292;SDS011;67256;51.154;4.164;2023-07-31T12:52:50;12.80;;;5.28;;
76292;SDS011;67256;51.154;4.164;2023-07-31T12:55:16;14.38;;;5.07;;
76292;SDS011;67256;51.154;4.164;2023-07-31T12:57:43;7.05;;;4.65;;
76292;SDS011;67256;51.154;4.164;2023-07-31T13:00:09;11.57;;;5.55;;
76292;SDS011;67256;51.154;4.164;2023-07-31T13:02:36;11.27;;;4.53;;
76292;SDS011;67256;51.154;4.164;2023-07-31T13:05:02;10.35;;;4.63;;
76292;SDS011;67256;51.154;4.164;2023-07-31T13:07:28;9.88;;;4.85;;
76292;SDS011;67256;51.154;4.164;2023-07-31T13:09:54;10.70;;;5.78;;
76292;SDS011;67256;51.154;4.164;2023-07-31T13:12:19;9.45;;;5.47;;
76292;SDS011;67256;51.154;4.164;2023-07-31T13:14:45;11.98;;;5.38;;
76292;SDS011;67256;51.154;4.164;2023-07-31T13:17:10;9.63;;;4.85;;
76292;SDS011;67256;51.154;4.164;2023-07-31T13:19:36;8.50;;;5.20;;
76292;SDS011;67256;51.154;4.164;2023-07-31T13:22:02;6.75;;;4.18;;
76292;SDS011;67256;51.154;4.164;2023-07-31T13:24:28;8.65;;;4.10;;
76292;SDS011;67256;51.154;4.164;2023-07-31T13:26:53;8.77;;;4.40;;
76292;SDS011;67256;51.154;4.164;2023-07-31T13:29:20;8.40;;;3.95;;
76292;SDS011;67256;51.154;4.164;2023-07-31T13:31:46;7.43;;;4.35;;
76292;SDS011;67256;51.154;4.164;2023-07-31T13:34:12;6.65;;;4.07;;
76292;SDS011;67256;51.154;4.164;2023-07-31T13:36:38;6.82;;;4.05;;
76292;SDS011;67256;51.154;4.164;2023-07-31T13:39:04;9.60;;;4.35;;
76292;SDS011;67256;51.154;4.164;2023-07-31T13:41:30;5.60;;;3.45;;
76292;SDS011;67256;51.154;4.164;2023-07-31T13:43:55;5.55;;;3.78;;
76292;SDS011;67256;51.154;4.164;2023-07-31T13:46:21;5.00;;;3.08;;
76292;SDS011;67256;51.154;4.164;2023-07-31T13:48:47;4.60;;;2.65;;
76292;SDS011;67256;51.154;4.164;2023-07-31T13:51:13;4.35;;;2.60;;
76292;SDS011;67256;51.154;4.164;2023-07-31T13:53:39;4.07;;;2.70;;
76292;SDS011;67256;51.154;4.164;2023-07-31T13:56:04;4.38;;;2.28;;
76292;SDS011;67256;51.154;4.164;2023-07-31T13:58:32;3.30;;;1.85;;
76292;SDS011;67256;51.154;4.164;2023-07-31T14:00:58;3.15;;;2.25;;
76292;SDS011;67256;51.154;4.164;2023-07-31T14:03:24;4.30;;;2.20;;
76292;SDS011;67256;51.154;4.164;2023-07-31T14:05:49;3.92;;;1.90;;
76292;SDS011;67256;51.154;4.164;2023-07-31T14:08:16;3.45;;;1.63;;
76292;SDS011;67256;51.154;4.164;2023-07-31T14:10:42;5.53;;;1.42;;
76292;SDS011;67256;51.154;4.164;2023-07-31T14:13:08;7.22;;;1.17;;
76292;SDS011;67256;51.154;4.164;2023-07-31T14:15:33;3.95;;;1.63;;
76292;SDS011;67256;51.154;4.164;2023-07-31T14:18:00;4.00;;;1.52;;
76292;SDS011;67256;51.154;4.164;2023-07-31T14:20:27;3.45;;;1.70;;
76292;SDS011;67256;51.154;4.164;2023-07-31T14:22:53;5.18;;;2.53;;
76292;SDS011;67256;51.154;4.164;2023-07-31T14:25:19;4.43;;;1.92;;
76292;SDS011;67256;51.154;4.164;2023-07-31T14:27:45;4.03;;;1.45;;
76292;SDS011;67256;51.154;4.164;2023-07-31T14:30:11;3.95;;;1.90;;
76292;SDS011;67256;51.154;4.164;2023-07-31T14:32:36;3.58;;;2.00;;
76292;SDS011;67256;51.154;4.164;2023-07-31T14:35:02;3.17;;;1.90;;
76292;SDS011;67256;51.154;4.164;2023-07-31T14:37:36;4.10;;;2.10;;
76292;SDS011;67256;51.154;4.164;2023-07-31T14:40:05;3.95;;;1.90;;
76292;SDS011;67256;51.154;4.164;2023-07-31T14:42:32;4.72;;;2.10;;
76292;SDS011;67256;51.154;4.164;2023-07-31T14:44:59;4.68;;;2.28;;
76292;SDS011;67256;51.154;4.164;2023-07-31T14:47:24;5.40;;;2.88;;
76292;SDS011;67256;51.154;4.164;2023-07-31T14:49:50;5.15;;;2.55;;
76292;SDS011;67256;51.154;4.164;2023-07-31T14:52:15;3.53;;;2.20;;
76292;SDS011;67256;51.154;4.164;2023-07-31T14:54:41;3.60;;;2.10;;
76292;SDS011;67256;51.154;4.164;2023-07-31T14:57:08;5.60;;;2.85;;
76292;SDS011;67256;51.154;4.164;2023-07-31T14:59:33;5.13;;;2.70;;
76292;SDS011;67256;51.154;4.164;2023-07-31T15:01:59;3.97;;;2.00;;
76292;SDS011;67256;51.154;4.164;2023-07-31T15:04:25;5.95;;;2.42;;
76292;SDS011;67256;51.154;4.164;2023-07-31T15:06:51;4.93;;;2.25;;
76292;SDS011;67256;51.154;4.164;2023-07-31T15:09:17;4.22;;;2.22;;
76292;SDS011;67256;51.154;4.164;2023-07-31T15:11:43;3.67;;;2.13;;
76292;SDS011;67256;51.154;4.164;2023-07-31T15:14:09;4.25;;;1.73;;